createdAt,value
2018-12-23T00:00:02.296Z,-3.50
2018-12-23T00:02:30.592Z,-3.60
2018-12-23T00:04:57.297Z,-3.60
2018-12-23T00:07:24.086Z,-3.50
2018-12-23T00:09:50.850Z,-3.50
2018-12-23T00:12:17.641Z,-3.60
2018-12-23T00:14:45.157Z,-3.70
2018-12-23T00:17:11.880Z,-3.80
2018-12-23T00:19:38.654Z,-3.60
2018-12-23T00:22:05.407Z,-3.60
2018-12-23T00:24:32.106Z,-3.70
2018-12-23T00:26:59.724Z,-3.60
2018-12-23T00:29:26.553Z,-3.70
2018-12-23T00:31:53.262Z,-3.80
2018-12-23T00:34:19.961Z,-3.80
2018-12-23T00:36:46.691Z,-3.70
2018-12-23T00:39:13.419Z,-3.70
2018-12-23T00:41:40.882Z,-3.70
2018-12-23T00:44:07.694Z,-3.70
2018-12-23T00:46:34.376Z,-3.70
2018-12-23T00:49:01.298Z,-3.70
2018-12-23T00:51:28.147Z,-3.80
2018-12-23T00:53:54.830Z,-3.70
2018-12-23T00:56:22.311Z,-3.70
2018-12-23T00:58:49.046Z,-3.80
2018-12-23T01:01:16.341Z,-3.90
2018-12-23T01:03:43.103Z,-3.90
2018-12-23T01:06:09.780Z,-3.90
2018-12-23T01:08:36.536Z,-3.90
2018-12-23T01:11:03.271Z,-3.90
2018-12-23T01:13:30.204Z,-3.90
2018-12-23T01:15:56.970Z,-4.00
2018-12-23T01:18:23.743Z,-4.00
2018-12-23T01:20:50.629Z,-4.00
2018-12-23T01:23:18.586Z,-3.90
2018-12-23T01:25:45.506Z,-4.00
2018-12-23T01:28:12.286Z,-3.90
2018-12-23T01:30:39.037Z,-3.90
2018-12-23T01:33:05.720Z,-4.00
2018-12-23T01:35:37.123Z,-4.00
2018-12-23T01:37:59.429Z,-4.00
2018-12-23T01:40:27.129Z,-4.10
2018-12-23T01:42:53.912Z,-4.20
2018-12-23T01:45:20.630Z,-4.10
2018-12-23T01:47:47.346Z,-4.10
2018-12-23T01:50:14.262Z,-4.00
2018-12-23T01:52:41.732Z,-4.00
2018-12-23T01:55:09.311Z,-4.10
2018-12-23T01:57:36.014Z,-4.00
2018-12-23T02:00:03.497Z,-4.20
2018-12-23T02:02:30.182Z,-4.20
2018-12-23T02:04:57.706Z,-4.10
2018-12-23T02:07:24.535Z,-4.10
2018-12-23T02:09:51.243Z,-4.10
2018-12-23T02:12:18.238Z,-4.10
2018-12-23T02:14:44.925Z,-4.00
2018-12-23T02:17:11.622Z,-4.00
2018-12-23T02:19:38.370Z,-4.00
2018-12-23T02:22:05.103Z,-4.00
2018-12-23T02:24:32.773Z,-4.00
2018-12-23T02:26:59.646Z,-4.00
2018-12-23T02:29:27.192Z,-3.90
2018-12-23T02:31:54.802Z,-4.00
2018-12-23T02:34:21.802Z,-4.10
2018-12-23T02:36:48.468Z,-4.10
2018-12-23T02:39:15.216Z,-4.00
2018-12-23T02:41:43.057Z,-4.00
2018-12-23T02:44:10.019Z,-4.00
2018-12-23T02:46:37.374Z,-4.10
2018-12-23T02:49:04.112Z,-4.10
2018-12-23T02:51:30.860Z,-4.10
2018-12-23T02:53:58.309Z,-4.00
2018-12-23T02:56:25.899Z,-4.20
2018-12-23T02:58:53.345Z,-4.10
2018-12-23T03:01:20.268Z,-4.20
2018-12-23T03:03:47.022Z,-4.20
2018-12-23T03:06:14.846Z,-4.20
2018-12-23T03:08:42.438Z,-4.20
2018-12-23T03:11:09.196Z,-4.20
2018-12-23T03:13:36.704Z,-4.30
2018-12-23T03:16:03.387Z,-4.30
2018-12-23T03:18:30.898Z,-4.20
2018-12-23T03:20:57.712Z,-4.20
2018-12-23T03:23:24.852Z,-4.20
2018-12-23T03:25:52.320Z,-4.10
2018-12-23T03:28:19.070Z,-4.10
2018-12-23T03:30:46.682Z,-4.10
2018-12-23T03:33:15.393Z,-4.20
2018-12-23T03:35:42.823Z,-4.20
2018-12-23T03:38:09.626Z,-4.20
2018-12-23T03:40:36.484Z,-4.20
2018-12-23T03:43:03.301Z,-4.30
2018-12-23T03:45:30.521Z,-4.20
2018-12-23T03:47:58.043Z,-4.30
2018-12-23T03:50:24.784Z,-4.40
2018-12-23T03:52:52.294Z,-4.30
2018-12-23T03:55:19.352Z,-4.40
2018-12-23T03:57:46.124Z,-4.40
2018-12-23T04:00:12.906Z,-4.40
2018-12-23T04:02:40.353Z,-4.40
2018-12-23T04:05:07.104Z,-4.40
2018-12-23T04:07:34.633Z,-4.40
2018-12-23T04:10:01.333Z,-4.40
2018-12-23T04:12:28.001Z,-4.50
2018-12-23T04:14:54.751Z,-4.50
2018-12-23T04:17:21.801Z,-4.40
2018-12-23T04:19:48.510Z,-4.40
2018-12-23T04:22:15.236Z,-4.40
2018-12-23T04:24:42.032Z,-4.30
2018-12-23T04:27:08.735Z,-4.30
2018-12-23T04:29:35.580Z,-4.30
2018-12-23T04:32:02.336Z,-4.30
2018-12-23T04:34:29.025Z,-4.30
2018-12-23T04:36:56.474Z,-4.30
2018-12-23T04:39:23.929Z,-4.30
2018-12-23T04:41:51.367Z,-4.30
2018-12-23T04:44:18.157Z,-4.30
2018-12-23T04:46:44.816Z,-4.20
2018-12-23T04:49:12.323Z,-4.10
2018-12-23T04:51:39.018Z,-4.20
2018-12-23T04:54:05.702Z,-4.20
2018-12-23T04:56:32.567Z,-4.30
2018-12-23T04:58:59.253Z,-4.30
2018-12-23T05:01:25.984Z,-4.30
2018-12-23T05:03:52.712Z,-4.40
2018-12-23T05:06:19.432Z,-4.30
2018-12-23T05:08:46.168Z,-4.30
2018-12-23T05:11:13.643Z,-4.60
2018-12-23T05:13:40.284Z,-4.60
2018-12-23T05:16:07.058Z,-4.50
2018-12-23T05:18:33.826Z,-4.50
2018-12-23T05:21:01.255Z,-4.50
2018-12-23T05:23:28.356Z,-4.50
2018-12-23T05:25:55.367Z,-4.50
2018-12-23T05:28:22.813Z,-4.60
2018-12-23T05:30:49.558Z,-4.50
2018-12-23T05:33:16.353Z,-4.50
2018-12-23T05:35:43.055Z,-4.50
2018-12-23T05:38:10.561Z,-4.40
2018-12-23T05:40:38.278Z,-4.40
2018-12-23T05:43:05.670Z,-4.40
2018-12-23T05:45:32.710Z,-4.50
2018-12-23T05:47:59.406Z,-4.50
2018-12-23T05:50:27.033Z,-4.50
2018-12-23T05:52:54.209Z,-4.60
2018-12-23T05:55:23.719Z,-4.50
2018-12-23T05:57:50.443Z,-4.50
2018-12-23T06:00:17.190Z,-4.50
2018-12-23T06:02:44.702Z,-4.40
2018-12-23T06:05:11.465Z,-4.50
2018-12-23T06:07:38.201Z,-4.40
2018-12-23T06:10:04.971Z,-4.40
2018-12-23T06:12:31.770Z,-4.30
2018-12-23T06:14:58.502Z,-4.40
2018-12-23T06:17:25.222Z,-4.30
2018-12-23T06:19:51.946Z,-4.30
2018-12-23T06:22:18.616Z,-4.30
2018-12-23T06:24:46.501Z,-4.30
2018-12-23T06:27:13.284Z,-4.30
2018-12-23T06:29:39.945Z,-4.30
2018-12-23T06:32:06.700Z,-4.30
2018-12-23T06:34:33.469Z,-4.30
2018-12-23T06:37:00.188Z,-4.30
2018-12-23T06:39:27.860Z,-4.50
2018-12-23T06:41:54.566Z,-4.50
2018-12-23T06:44:22.034Z,-4.60
2018-12-23T06:46:48.782Z,-4.50
2018-12-23T06:49:16.451Z,-4.50
2018-12-23T06:51:43.139Z,-4.50
2018-12-23T06:54:09.910Z,-4.50
2018-12-23T06:56:37.370Z,-4.40
2018-12-23T06:59:04.771Z,-4.30
2018-12-23T07:01:31.742Z,-4.40
2018-12-23T07:03:58.456Z,-4.40
2018-12-23T07:06:25.169Z,-4.40
2018-12-23T07:08:51.886Z,-4.50
2018-12-23T07:11:19.370Z,-4.30
2018-12-23T07:13:46.097Z,-4.40
2018-12-23T07:16:12.827Z,-4.30
2018-12-23T07:18:39.544Z,-4.30
2018-12-23T07:21:06.260Z,-4.40
2018-12-23T07:23:32.958Z,-4.30
2018-12-23T07:26:00.454Z,-4.40
2018-12-23T07:28:27.206Z,-4.30
2018-12-23T07:30:53.912Z,-4.30
2018-12-23T07:33:20.593Z,-4.30
2018-12-23T07:35:48.067Z,-4.30
2018-12-23T07:38:14.790Z,-4.30
2018-12-23T07:40:41.514Z,-4.40
2018-12-23T07:43:08.215Z,-4.30
2018-12-23T07:45:34.884Z,-4.30
2018-12-23T07:48:01.616Z,-4.30
2018-12-23T07:50:28.362Z,-4.30
2018-12-23T07:52:55.095Z,-4.20
2018-12-23T07:55:21.753Z,-4.30
2018-12-23T07:57:48.493Z,-4.40
2018-12-23T08:00:15.287Z,-4.50
2018-12-23T08:02:42.760Z,-4.50
2018-12-23T08:05:09.439Z,-4.50
2018-12-23T08:07:36.521Z,-4.40
2018-12-23T08:10:03.221Z,-4.30
2018-12-23T08:12:30.676Z,-4.20
2018-12-23T08:14:57.460Z,-4.30
2018-12-23T08:17:25.299Z,-4.30
2018-12-23T08:19:52.738Z,-4.30
2018-12-23T08:22:19.646Z,-4.30
2018-12-23T08:24:46.367Z,-4.20
2018-12-23T08:27:13.146Z,-4.10
2018-12-23T08:29:39.848Z,-4.10
2018-12-23T08:32:07.319Z,-4.10
2018-12-23T08:34:34.813Z,-4.10
2018-12-23T08:37:01.620Z,-4.20
2018-12-23T08:39:29.156Z,-4.00
2018-12-23T08:41:56.689Z,-4.00
2018-12-23T08:44:23.407Z,-4.00
2018-12-23T08:46:50.179Z,-4.10
2018-12-23T08:49:16.984Z,-4.10
2018-12-23T08:51:45.831Z,-4.10
2018-12-23T08:54:11.792Z,-4.00
2018-12-23T08:56:39.167Z,-4.20
2018-12-23T08:59:05.964Z,-4.20
2018-12-23T09:01:32.727Z,-4.20
2018-12-23T09:03:59.514Z,-4.20
2018-12-23T09:06:26.259Z,-4.10
2018-12-23T09:08:52.977Z,-4.00
2018-12-23T09:11:19.775Z,-3.90
2018-12-23T09:13:47.320Z,-4.00
2018-12-23T09:16:15.304Z,-3.90
2018-12-23T09:18:42.106Z,-3.90
2018-12-23T09:21:08.830Z,-3.80
2018-12-23T09:23:35.690Z,-3.70
2018-12-23T09:26:04.020Z,-3.70
2018-12-23T09:28:31.551Z,-3.70
2018-12-23T09:30:59.860Z,-3.80
2018-12-23T09:33:26.821Z,-3.80
2018-12-23T09:35:55.598Z,-3.60
2018-12-23T09:38:23.877Z,-3.60
2018-12-23T09:40:51.810Z,-3.60
2018-12-23T09:43:19.910Z,-3.60
2018-12-23T09:45:46.612Z,-3.60
2018-12-23T09:48:13.393Z,-3.60
2018-12-23T09:50:40.117Z,-3.50
2018-12-23T09:53:07.606Z,-3.50
2018-12-23T09:55:34.437Z,-3.50
2018-12-23T09:58:01.347Z,-3.40
2018-12-23T10:00:28.865Z,-3.30
2018-12-23T10:02:55.628Z,-3.30
2018-12-23T10:05:37.270Z,-3.30
2018-12-23T10:08:09.952Z,-3.40
2018-12-23T10:10:30.805Z,-3.40
2018-12-23T10:12:58.307Z,-3.20
2018-12-23T10:15:25.787Z,-3.20
2018-12-23T10:17:52.499Z,-3.20
2018-12-23T10:20:19.182Z,-3.40
2018-12-23T10:22:45.969Z,-3.60
2018-12-23T10:25:13.412Z,-3.60
2018-12-23T10:27:40.090Z,-3.60
2018-12-23T10:30:06.828Z,-3.50
2018-12-23T10:32:34.675Z,-3.40
2018-12-23T10:35:02.871Z,-3.50
2018-12-23T10:37:31.099Z,-3.40
2018-12-23T10:40:00.489Z,-3.30
2018-12-23T10:42:29.545Z,-3.10
2018-12-23T10:44:57.106Z,-3.20
2018-12-23T10:47:24.643Z,-3.20
2018-12-23T10:49:52.435Z,-3.20
2018-12-23T10:52:20.659Z,-3.20
2018-12-23T10:54:48.984Z,-3.20
2018-12-23T10:57:17.164Z,-3.20
2018-12-23T10:59:44.945Z,-3.50
2018-12-23T11:02:13.787Z,-3.40
2018-12-23T11:04:41.267Z,-3.40
2018-12-23T11:07:09.251Z,-3.40
2018-12-23T11:09:37.905Z,-3.40
2018-12-23T11:12:05.378Z,-3.40
2018-12-23T11:14:33.638Z,-3.40
2018-12-23T11:17:01.697Z,-3.40
2018-12-23T11:19:30.003Z,-3.30
2018-12-23T11:21:58.155Z,-3.30
2018-12-23T11:24:25.320Z,-3.30
2018-12-23T11:26:53.882Z,-3.40
2018-12-23T11:29:20.426Z,-3.40
2018-12-23T11:31:47.314Z,-3.40
2018-12-23T11:34:14.235Z,-3.40
2018-12-23T11:36:41.000Z,-3.30
2018-12-23T11:39:08.085Z,-3.30
2018-12-23T11:41:35.117Z,-3.30
2018-12-23T11:44:01.920Z,-3.30
2018-12-23T11:46:28.594Z,-3.30
2018-12-23T11:48:55.288Z,-3.30
2018-12-23T11:51:22.084Z,-3.30
2018-12-23T11:53:49.525Z,-3.40
2018-12-23T11:56:30.952Z,-3.40
2018-12-23T11:58:58.340Z,-3.50
2018-12-23T12:01:25.035Z,-3.50
2018-12-23T12:03:52.665Z,-3.60
2018-12-23T12:06:19.340Z,-3.60
2018-12-23T12:08:46.758Z,-3.60
2018-12-23T12:11:13.497Z,-3.70
2018-12-23T12:13:40.925Z,-3.70
2018-12-23T12:16:07.605Z,-3.70
2018-12-23T12:18:34.328Z,-3.70
2018-12-23T12:21:01.123Z,-3.80
2018-12-23T12:23:28.085Z,-3.80
2018-12-23T12:25:54.825Z,-3.70
2018-12-23T12:28:21.674Z,-3.90
2018-12-23T12:30:48.350Z,-3.90
2018-12-23T12:33:15.073Z,-3.80
2018-12-23T12:35:41.840Z,-3.80
2018-12-23T12:38:08.735Z,-3.70
2018-12-23T12:40:35.417Z,-3.70
2018-12-23T12:43:02.937Z,-3.80
2018-12-23T12:45:29.702Z,-3.90
2018-12-23T12:47:56.767Z,-3.90
2018-12-23T12:50:24.478Z,-3.90
2018-12-23T12:52:52.549Z,-3.90
2018-12-23T12:55:18.741Z,-3.90
2018-12-23T12:57:45.518Z,-3.90
2018-12-23T13:00:12.245Z,-3.90
2018-12-23T13:02:39.897Z,-4.00
2018-12-23T13:05:06.640Z,-4.00
2018-12-23T13:07:34.071Z,-4.10
2018-12-23T13:10:00.869Z,-4.10
2018-12-23T13:12:27.539Z,-4.10
2018-12-23T13:14:54.249Z,-4.00
2018-12-23T13:17:21.056Z,-4.10
2018-12-23T13:19:48.496Z,-4.00
2018-12-23T13:22:15.203Z,-4.00
2018-12-23T13:24:42.105Z,-4.10
2018-12-23T13:27:08.970Z,-4.00
2018-12-23T13:29:35.658Z,-4.00
2018-12-23T13:32:03.174Z,-3.90
2018-12-23T13:34:29.856Z,-4.00
2018-12-23T13:36:56.545Z,-3.90
2018-12-23T13:39:23.532Z,-3.90
2018-12-23T13:41:50.295Z,-3.90
2018-12-23T13:44:29.119Z,-3.90
2018-12-23T13:47:20.225Z,-3.90
2018-12-23T13:49:58.743Z,-3.90
2018-12-23T13:52:46.045Z,-4.00
2018-12-23T13:58:21.658Z,-3.90
2018-12-23T14:00:51.951Z,-4.00
2018-12-23T14:03:22.416Z,-4.00
2018-12-23T14:05:59.065Z,-4.00
2018-12-23T14:08:42.390Z,-4.00
2018-12-23T14:11:10.913Z,-4.00
2018-12-23T14:13:37.607Z,-3.90
2018-12-23T14:16:04.310Z,-3.90
2018-12-23T14:18:31.049Z,-3.90
2018-12-23T14:20:58.483Z,-3.90
2018-12-23T14:23:25.270Z,-3.90
2018-12-23T14:25:52.037Z,-3.90
2018-12-23T14:28:18.791Z,-3.80
2018-12-23T14:30:46.203Z,-3.80
2018-12-23T14:33:12.980Z,-3.80
2018-12-23T14:35:40.419Z,-3.80
2018-12-23T14:38:07.146Z,-3.70
2018-12-23T14:40:34.631Z,-3.70
2018-12-23T14:43:01.337Z,-3.80
2018-12-23T14:45:28.173Z,-3.70
2018-12-23T14:47:55.330Z,-3.70
2018-12-23T14:50:22.357Z,-3.80
2018-12-23T14:52:49.068Z,-3.80
2018-12-23T14:55:16.511Z,-3.80
2018-12-23T14:57:43.935Z,-3.70
2018-12-23T15:00:11.470Z,-3.70
2018-12-23T15:02:38.146Z,-3.70
2018-12-23T15:05:04.877Z,-3.70
2018-12-23T15:07:31.689Z,-3.80
2018-12-23T15:09:58.362Z,-3.70
2018-12-23T15:12:25.082Z,-3.60
2018-12-23T15:14:51.953Z,-3.60
2018-12-23T15:17:18.586Z,-3.60
2018-12-23T15:19:45.364Z,-3.50
2018-12-23T15:22:12.868Z,-3.40
2018-12-23T15:24:39.640Z,-3.40
2018-12-23T15:27:06.347Z,-3.40
2018-12-23T15:29:33.136Z,-3.30
2018-12-23T15:32:00.558Z,-3.30
2018-12-23T15:34:27.323Z,-3.30
2018-12-23T15:36:54.859Z,-3.30
2018-12-23T15:39:21.585Z,-3.30
2018-12-23T15:41:48.256Z,-3.30
2018-12-23T15:44:15.042Z,-3.30
2018-12-23T15:46:41.808Z,-3.40
2018-12-23T15:49:09.240Z,-3.40
2018-12-23T15:51:36.839Z,-3.50
2018-12-23T15:54:04.313Z,-3.40
2018-12-23T15:56:31.006Z,-3.40
2018-12-23T15:58:57.913Z,-3.40
2018-12-23T16:01:24.646Z,-3.40
2018-12-23T16:03:51.505Z,-3.40
2018-12-23T16:06:18.240Z,-3.40
2018-12-23T16:08:48.189Z,-3.40
2018-12-23T16:11:15.737Z,-3.40
2018-12-23T16:13:42.497Z,-3.30
2018-12-23T16:16:09.198Z,-3.30
2018-12-23T16:18:35.916Z,-3.40
2018-12-23T16:21:02.612Z,-3.40
2018-12-23T16:23:29.339Z,-3.40
2018-12-23T16:25:56.101Z,-3.50
2018-12-23T16:28:22.812Z,-3.50
2018-12-23T16:30:49.471Z,-3.50
2018-12-23T16:33:16.180Z,-3.40
2018-12-23T16:35:43.613Z,-3.40
2018-12-23T16:38:10.385Z,-3.40
2018-12-23T16:40:37.852Z,-3.60
2018-12-23T16:43:04.537Z,-3.60
2018-12-23T16:45:31.240Z,-3.70
2018-12-23T16:47:58.027Z,-3.60
2018-12-23T16:50:24.692Z,-3.70
2018-12-23T16:52:52.576Z,-3.70
2018-12-23T16:55:19.570Z,-3.70
2018-12-23T16:57:46.269Z,-3.70
2018-12-23T17:00:13.054Z,-3.80
2018-12-23T17:02:39.736Z,-3.80
2018-12-23T17:05:06.474Z,-3.90
2018-12-23T17:07:33.936Z,-3.90
2018-12-23T17:10:07.939Z,-3.90
2018-12-23T17:12:28.184Z,-3.90
2018-12-23T17:14:54.918Z,-3.90
2018-12-23T17:17:22.363Z,-3.70
2018-12-23T17:19:49.232Z,-3.70
2018-12-23T17:22:16.783Z,-3.60
2018-12-23T17:24:43.521Z,-3.70
2018-12-23T17:27:10.152Z,-3.70
2018-12-23T17:29:36.987Z,-3.60
2018-12-23T17:34:54.958Z,-3.70
2018-12-23T17:37:21.652Z,-3.70
2018-12-23T17:39:48.362Z,-3.70
2018-12-23T17:42:15.094Z,-3.70
2018-12-23T17:44:41.927Z,-3.70
2018-12-23T17:47:08.769Z,-3.70
2018-12-23T17:49:36.304Z,-3.60
2018-12-23T17:52:03.517Z,-3.60
2018-12-23T17:54:30.492Z,-3.70
2018-12-23T17:56:57.357Z,-3.70
2018-12-23T17:59:24.219Z,-3.70
2018-12-23T18:01:51.677Z,-3.80
2018-12-23T18:04:18.501Z,-3.80
2018-12-23T18:06:45.361Z,-3.80
2018-12-23T18:09:13.135Z,-3.80
2018-12-23T18:11:40.610Z,-3.70
2018-12-23T18:14:08.048Z,-3.70
2018-12-23T18:16:34.791Z,-3.70
2018-12-23T18:19:01.429Z,-3.70
2018-12-23T18:21:28.193Z,-3.60
2018-12-23T18:23:55.830Z,-3.70
2018-12-23T18:26:22.533Z,-3.70
2018-12-23T18:28:49.258Z,-3.60
2018-12-23T18:31:15.920Z,-3.70
2018-12-23T18:33:42.703Z,-3.60
2018-12-23T18:36:09.684Z,-3.60
2018-12-23T18:38:36.367Z,-3.50
2018-12-23T18:41:03.098Z,-3.60
2018-12-23T18:43:30.922Z,-3.60
2018-12-23T18:45:57.715Z,-3.60
2018-12-23T18:48:24.467Z,-3.60
2018-12-23T18:50:51.234Z,-3.80
2018-12-23T18:53:19.091Z,-3.80
2018-12-23T18:55:46.533Z,-3.80
2018-12-23T18:58:13.326Z,-3.80
2018-12-23T19:00:40.086Z,-3.70
2018-12-23T19:03:06.854Z,-3.70
2018-12-23T19:05:33.553Z,-3.70
2018-12-23T19:08:00.497Z,-3.70
2018-12-23T19:10:29.055Z,-3.70
2018-12-23T19:16:10.713Z,-3.80
2018-12-23T19:21:40.601Z,-3.80
2018-12-23T19:24:13.829Z,-3.70
2018-12-23T19:29:49.565Z,-3.70
2018-12-23T19:32:29.900Z,-3.70
2018-12-23T19:35:14.323Z,-3.70
2018-12-23T19:38:03.149Z,-3.80
2018-12-23T19:40:56.513Z,-3.70
2018-12-23T19:43:39.008Z,-3.80
2018-12-23T19:49:07.152Z,-3.70
2018-12-23T19:51:45.421Z,-3.60
2018-12-23T19:54:23.257Z,-3.60
2018-12-23T19:57:11.734Z,-3.60
2018-12-23T19:59:44.926Z,-3.60
2018-12-23T20:02:18.288Z,-3.60
2018-12-23T20:07:54.998Z,-3.60
2018-12-23T20:10:25.841Z,-3.70
2018-12-23T20:13:17.400Z,-3.60
2018-12-23T20:15:47.798Z,-3.70
2018-12-23T20:18:27.596Z,-3.80
2018-12-23T20:24:12.923Z,-3.90
2018-12-23T20:30:14.056Z,-3.80
2018-12-23T20:32:50.538Z,-3.80
2018-12-23T20:35:30.234Z,-3.80
2018-12-23T20:38:15.748Z,-3.90
2018-12-23T20:41:07.485Z,-3.90
2018-12-23T20:43:35.053Z,-3.80
2018-12-23T20:46:22.185Z,-3.70
2018-12-23T20:48:56.481Z,-3.70
2018-12-23T20:51:29.378Z,-3.70
2018-12-23T20:54:13.843Z,-3.80
2018-12-23T20:57:11.655Z,-3.80
2018-12-23T20:59:44.721Z,-3.90
2018-12-23T21:02:14.246Z,-3.90
2018-12-23T21:05:01.193Z,-4.10
2018-12-23T21:07:33.816Z,-4.10
2018-12-23T21:10:12.436Z,-4.00
2018-12-23T21:15:52.854Z,-3.80
2018-12-23T21:18:53.504Z,-3.90
2018-12-23T21:21:26.775Z,-3.80
2018-12-23T21:27:09.496Z,-4.00
2018-12-23T21:32:45.676Z,-4.00
2018-12-23T21:35:38.231Z,-4.00
2018-12-23T21:41:31.018Z,-3.90
2018-12-23T21:44:11.804Z,-3.90
2018-12-23T21:46:56.712Z,-3.90
2018-12-23T21:49:43.275Z,-3.90
2018-12-23T21:52:30.708Z,-3.80
2018-12-23T21:55:18.941Z,-3.80
2018-12-23T21:58:03.609Z,-3.90
2018-12-23T22:00:43.455Z,-3.80
2018-12-23T22:03:11.832Z,-3.80
2018-12-23T22:05:44.528Z,-3.80
2018-12-23T22:11:19.220Z,-3.80
2018-12-23T22:13:46.165Z,-3.70
2018-12-23T22:16:28.146Z,-3.70
2018-12-23T22:18:55.892Z,-3.80
2018-12-23T22:21:22.837Z,-3.80
2018-12-23T22:23:50.319Z,-4.00
2018-12-23T22:26:17.084Z,-4.00
2018-12-23T22:28:44.247Z,-4.00
2018-12-23T22:31:11.904Z,-3.80
2018-12-23T22:33:38.847Z,-3.90
2018-12-23T22:36:05.836Z,-3.90
2018-12-23T22:38:32.729Z,-3.80
2018-12-23T22:41:00.272Z,-3.80
2018-12-23T22:43:27.499Z,-3.90
2018-12-23T22:45:54.393Z,-3.80
2018-12-23T22:48:21.515Z,-3.80
2018-12-23T22:50:48.504Z,-3.80
2018-12-23T22:53:15.681Z,-3.80
2018-12-23T22:55:43.018Z,-3.90
2018-12-23T22:58:09.691Z,-3.80
2018-12-23T23:00:36.448Z,-3.80
2018-12-23T23:03:08.876Z,-3.90
2018-12-23T23:05:31.313Z,-3.90
2018-12-23T23:07:58.291Z,-3.80
2018-12-23T23:10:25.023Z,-3.80
2018-12-23T23:12:52.194Z,-3.80
2018-12-23T23:15:20.765Z,-3.80
2018-12-23T23:17:47.079Z,-3.90
2018-12-23T23:20:14.788Z,-3.90
2018-12-23T23:22:41.748Z,-4.00
2018-12-23T23:25:09.595Z,-4.00
2018-12-23T23:27:36.481Z,-4.00
2018-12-23T23:30:03.591Z,-4.10
2018-12-23T23:32:30.706Z,-4.10
2018-12-23T23:34:58.358Z,-4.00
2018-12-23T23:37:25.426Z,-4.10
2018-12-23T23:39:52.368Z,-4.20
2018-12-23T23:42:19.455Z,-4.20
2018-12-23T23:44:47.270Z,-4.30
2018-12-23T23:47:14.764Z,-4.30
2018-12-23T23:49:42.775Z,-4.40
2018-12-23T23:52:10.678Z,-4.30
2018-12-23T23:54:38.895Z,-4.30
2018-12-23T23:57:05.931Z,-4.40
2018-12-23T23:59:33.587Z,-4.30
